sensor_id;sensor_type;location;lat;lon;timestamp;noise_LAeq;noise_LA_min;noise_LA_max;noise_LA01;noise_LA95
186;Laerm;55473;48.800;9.002;2023-09-08T00:02:16;37.81;34.79;42.53;;
186;Laerm;55473;48.800;9.002;2023-09-08T00:04:42;38.28;34.71;49.31;;
186;Laerm;55473;48.800;9.002;2023-09-08T00:07:08;37.65;34.56;52.88;;
186;Laerm;55473;48.800;9.002;2023-09-08T00:09:33;38.28;35.08;42.86;;
186;Laerm;55473;48.800;9.002;2023-09-08T00:11:59;38.34;35.04;54.22;;
186;Laerm;55473;48.800;9.002;2023-09-08T00:14:25;38.21;35.07;44.53;;
186;Laerm;55473;48.800;9.002;2023-09-08T00:16:52;38.33;35.02;43.77;;
186;Laerm;55473;48.800;9.002;2023-09-08T00:19:21;38.76;35.29;43.70;;
186;Laerm;55473;48.800;9.002;2023-09-08T00:21:48;37.37;34.77;41.73;;
186;Laerm;55473;48.800;9.002;2023-09-08T00:24:15;37.36;34.68;47.96;;
186;Laerm;55473;48.800;9.002;2023-09-08T00:26:41;37.62;34.93;44.00;;
186;Laerm;55473;48.800;9.002;2023-09-08T00:29:07;38.04;35.50;42.26;;
186;Laerm;55473;48.800;9.002;2023-09-08T00:31:33;38.30;35.30;44.90;;
186;Laerm;55473;48.800;9.002;2023-09-08T00:33:59;38.85;35.51;49.07;;
186;Laerm;55473;48.800;9.002;2023-09-08T00:36:24;38.83;35.70;43.55;;
186;Laerm;55473;48.800;9.002;2023-09-08T00:38:50;39.15;35.45;56.24;;
186;Laerm;55473;48.800;9.002;2023-09-08T00:41:16;37.37;34.81;41.93;;
186;Laerm;55473;48.800;9.002;2023-09-08T00:43:42;37.33;34.59;55.82;;
186;Laerm;55473;48.800;9.002;2023-09-08T00:46:09;38.04;34.84;49.74;;
186;Laerm;55473;48.800;9.002;2023-09-08T00:48:37;38.70;35.65;50.04;;
186;Laerm;55473;48.800;9.002;2023-09-08T00:51:03;38.76;35.73;42.24;;
186;Laerm;55473;48.800;9.002;2023-09-08T00:53:31;38.34;34.65;43.53;;
186;Laerm;55473;48.800;9.002;2023-09-08T00:55:59;38.48;35.36;44.68;;
186;Laerm;55473;48.800;9.002;2023-09-08T00:58:25;39.27;35.65;47.43;;
186;Laerm;55473;48.800;9.002;2023-09-08T01:00:51;39.57;35.62;43.68;;
186;Laerm;55473;48.800;9.002;2023-09-08T01:03:17;39.74;35.98;57.03;;
186;Laerm;55473;48.800;9.002;2023-09-08T01:05:43;39.12;35.68;47.85;;
186;Laerm;55473;48.800;9.002;2023-09-08T01:08:13;38.58;35.58;42.45;;
186;Laerm;55473;48.800;9.002;2023-09-08T01:10:41;38.87;35.30;44.91;;
186;Laerm;55473;48.800;9.002;2023-09-08T01:13:07;39.44;36.43;49.03;;
186;Laerm;55473;48.800;9.002;2023-09-08T01:15:33;39.05;36.17;42.79;;
186;Laerm;55473;48.800;9.002;2023-09-08T01:17:59;38.14;35.19;53.97;;
186;Laerm;55473;48.800;9.002;2023-09-08T01:24:05;40.19;36.71;57.66;;
186;Laerm;55473;48.800;9.002;2023-09-08T01:26:41;39.09;35.22;57.01;;
186;Laerm;55473;48.800;9.002;2023-09-08T01:29:09;38.67;35.26;54.32;;
186;Laerm;55473;48.800;9.002;2023-09-08T01:31:37;37.93;34.81;58.79;;
186;Laerm;55473;48.800;9.002;2023-09-08T01:34:04;38.13;34.76;48.73;;
186;Laerm;55473;48.800;9.002;2023-09-08T01:36:35;38.15;35.05;42.78;;
186;Laerm;55473;48.800;9.002;2023-09-08T01:39:02;38.07;34.60;55.51;;
186;Laerm;55473;48.800;9.002;2023-09-08T01:41:28;37.88;35.00;42.54;;
186;Laerm;55473;48.800;9.002;2023-09-08T01:43:55;38.30;35.11;57.18;;
186;Laerm;55473;48.800;9.002;2023-09-08T01:46:21;38.97;35.03;66.46;;
186;Laerm;55473;48.800;9.002;2023-09-08T01:48:47;38.15;34.51;52.00;;
186;Laerm;55473;48.800;9.002;2023-09-08T01:51:13;37.46;34.77;52.98;;
186;Laerm;55473;48.800;9.002;2023-09-08T01:53:38;37.65;34.41;56.02;;
186;Laerm;55473;48.800;9.002;2023-09-08T01:56:04;37.25;34.87;53.29;;
186;Laerm;55473;48.800;9.002;2023-09-08T01:58:30;37.45;34.95;55.54;;
186;Laerm;55473;48.800;9.002;2023-09-08T02:00:58;37.47;35.03;46.85;;
186;Laerm;55473;48.800;9.002;2023-09-08T02:03:32;42.62;35.39;52.88;;
186;Laerm;55473;48.800;9.002;2023-09-08T02:05:58;38.05;35.06;49.88;;
186;Laerm;55473;48.800;9.002;2023-09-08T02:08:24;37.67;35.20;50.45;;
186;Laerm;55473;48.800;9.002;2023-09-08T02:10:49;38.29;35.28;56.11;;
186;Laerm;55473;48.800;9.002;2023-09-08T02:13:15;37.99;34.93;58.89;;
186;Laerm;55473;48.800;9.002;2023-09-08T02:15:41;38.38;35.51;50.14;;
186;Laerm;55473;48.800;9.002;2023-09-08T02:18:07;38.18;35.26;58.22;;
186;Laerm;55473;48.800;9.002;2023-09-08T02:20:33;39.24;36.10;63.21;;
186;Laerm;55473;48.800;9.002;2023-09-08T02:23:06;39.70;35.96;51.76;;
186;Laerm;55473;48.800;9.002;2023-09-08T02:25:32;40.01;36.09;49.90;;
186;Laerm;55473;48.800;9.002;2023-09-08T02:27:58;39.59;35.98;57.95;;
186;Laerm;55473;48.800;9.002;2023-09-08T02:30:24;38.81;35.96;59.43;;
186;Laerm;55473;48.800;9.002;2023-09-08T02:32:50;38.74;35.67;57.29;;
186;Laerm;55473;48.800;9.002;2023-09-08T02:35:16;39.83;36.28;55.42;;
186;Laerm;55473;48.800;9.002;2023-09-08T02:37:42;39.54;36.34;51.91;;
186;Laerm;55473;48.800;9.002;2023-09-08T02:40:08;39.87;36.68;50.45;;
186;Laerm;55473;48.800;9.002;2023-09-08T02:42:33;40.35;36.31;54.28;;
186;Laerm;55473;48.800;9.002;2023-09-08T02:45:00;39.71;36.67;53.34;;
186;Laerm;55473;48.800;9.002;2023-09-08T02:47:25;39.57;36.64;53.43;;
186;Laerm;55473;48.800;9.002;2023-09-08T02:49:51;46.09;36.72;58.63;;
186;Laerm;55473;48.800;9.002;2023-09-08T02:52:17;39.89;36.53;56.92;;
186;Laerm;55473;48.800;9.002;2023-09-08T02:54:45;39.90;36.90;48.80;;
186;Laerm;55473;48.800;9.002;2023-09-08T02:57:11;41.62;36.23;61.02;;
186;Laerm;55473;48.800;9.002;2023-09-08T02:59:36;42.89;36.82;52.75;;
186;Laerm;55473;48.800;9.002;2023-09-08T03:02:03;39.76;36.91;50.11;;
186;Laerm;55473;48.800;9.002;2023-09-08T03:04:29;52.16;37.41;64.64;;
186;Laerm;55473;48.800;9.002;2023-09-08T03:06:54;42.37;36.80;57.41;;
186;Laerm;55473;48.800;9.002;2023-09-08T03:09:20;43.82;37.46;57.04;;
186;Laerm;55473;48.800;9.002;2023-09-08T03:11:46;41.22;37.77;55.38;;
186;Laerm;55473;48.800;9.002;2023-09-08T03:14:12;40.07;36.85;58.48;;
186;Laerm;55473;48.800;9.002;2023-09-08T03:16:37;44.84;36.81;59.91;;
186;Laerm;55473;48.800;9.002;2023-09-08T03:19:03;44.51;37.15;57.61;;
186;Laerm;55473;48.800;9.002;2023-09-08T03:21:29;42.47;38.17;51.73;;
186;Laerm;55473;48.800;9.002;2023-09-08T03:23:55;40.83;37.68;59.38;;
186;Laerm;55473;48.800;9.002;2023-09-08T03:26:20;41.48;38.37;47.95;;
186;Laerm;55473;48.800;9.002;2023-09-08T03:28:46;42.90;38.41;59.47;;
186;Laerm;55473;48.800;9.002;2023-09-08T03:31:12;42.83;38.64;54.28;;
186;Laerm;55473;48.800;9.002;2023-09-08T03:33:38;44.54;38.74;55.50;;
186;Laerm;55473;48.800;9.002;2023-09-08T03:36:04;42.04;38.86;51.84;;
186;Laerm;55473;48.800;9.002;2023-09-08T03:38:30;41.41;38.18;51.75;;
186;Laerm;55473;48.800;9.002;2023-09-08T03:40:56;41.92;38.28;58.43;;
186;Laerm;55473;48.800;9.002;2023-09-08T03:43:21;42.28;38.95;53.39;;
186;Laerm;55473;48.800;9.002;2023-09-08T03:45:47;43.42;38.01;58.14;;
186;Laerm;55473;48.800;9.002;2023-09-08T03:48:13;46.66;38.01;58.34;;
186;Laerm;55473;48.800;9.002;2023-09-08T03:50:39;40.75;37.35;50.65;;
186;Laerm;55473;48.800;9.002;2023-09-08T03:53:05;40.53;37.35;58.55;;
186;Laerm;55473;48.800;9.002;2023-09-08T03:55:31;41.43;37.36;61.74;;
186;Laerm;55473;48.800;9.002;2023-09-08T03:57:57;42.97;38.18;52.87;;
186;Laerm;55473;48.800;9.002;2023-09-08T04:00:23;43.01;37.35;55.77;;
186;Laerm;55473;48.800;9.002;2023-09-08T04:02:49;46.04;38.47;63.70;;
186;Laerm;55473;48.800;9.002;2023-09-08T04:05:18;42.18;37.32;60.51;;
186;Laerm;55473;48.800;9.002;2023-09-08T04:07:45;40.52;36.99;56.13;;
186;Laerm;55473;48.800;9.002;2023-09-08T04:10:12;40.71;37.41;57.52;;
186;Laerm;55473;48.800;9.002;2023-09-08T04:12:40;42.73;38.35;58.73;;
186;Laerm;55473;48.800;9.002;2023-09-08T04:15:07;43.33;38.68;58.39;;
186;Laerm;55473;48.800;9.002;2023-09-08T04:17:33;46.31;38.18;59.88;;
186;Laerm;55473;48.800;9.002;2023-09-08T04:19:59;43.73;38.70;58.50;;
186;Laerm;55473;48.800;9.002;2023-09-08T04:22:25;42.91;38.82;63.09;;
186;Laerm;55473;48.800;9.002;2023-09-08T04:24:50;43.50;39.47;55.84;;
186;Laerm;55473;48.800;9.002;2023-09-08T04:27:16;44.44;40.16;56.03;;
186;Laerm;55473;48.800;9.002;2023-09-08T04:29:42;45.86;40.05;60.74;;
186;Laerm;55473;48.800;9.002;2023-09-08T04:32:10;44.74;40.43;56.97;;
186;Laerm;55473;48.800;9.002;2023-09-08T04:34:39;45.45;41.03;64.78;;
186;Laerm;55473;48.800;9.002;2023-09-08T04:37:05;44.88;40.48;56.15;;
186;Laerm;55473;48.800;9.002;2023-09-08T04:39:31;45.46;40.82;58.47;;
186;Laerm;55473;48.800;9.002;2023-09-08T04:41:57;43.78;40.54;55.11;;
186;Laerm;55473;48.800;9.002;2023-09-08T04:44:23;45.95;40.93;55.79;;
186;Laerm;55473;48.800;9.002;2023-09-08T04:46:48;43.54;40.20;55.50;;
186;Laerm;55473;48.800;9.002;2023-09-08T04:49:14;48.73;40.86;60.57;;
186;Laerm;55473;48.800;9.002;2023-09-08T04:51:40;45.34;40.70;58.36;;
186;Laerm;55473;48.800;9.002;2023-09-08T04:54:06;51.77;40.99;64.06;;
186;Laerm;55473;48.800;9.002;2023-09-08T04:56:32;45.10;40.82;57.39;;
186;Laerm;55473;48.800;9.002;2023-09-08T04:58:58;45.78;40.87;58.24;;
186;Laerm;55473;48.800;9.002;2023-09-08T05:01:27;45.00;40.87;57.67;;
186;Laerm;55473;48.800;9.002;2023-09-08T05:03:53;49.66;42.23;60.81;;
186;Laerm;55473;48.800;9.002;2023-09-08T05:06:19;47.50;40.58;73.45;;
186;Laerm;55473;48.800;9.002;2023-09-08T05:08:45;44.93;40.38;62.62;;
186;Laerm;55473;48.800;9.002;2023-09-08T05:11:11;44.99;41.05;59.78;;
186;Laerm;55473;48.800;9.002;2023-09-08T05:13:36;45.96;40.80;57.59;;
186;Laerm;55473;48.800;9.002;2023-09-08T05:16:02;46.16;40.01;58.69;;
186;Laerm;55473;48.800;9.002;2023-09-08T05:18:41;47.99;40.68;60.31;;
186;Laerm;55473;48.800;9.002;2023-09-08T05:21:07;48.15;40.73;64.36;;
186;Laerm;55473;48.800;9.002;2023-09-08T05:23:33;47.26;41.09;61.85;;
186;Laerm;55473;48.800;9.002;2023-09-08T05:26:00;47.02;40.98;59.27;;
186;Laerm;55473;48.800;9.002;2023-09-08T05:28:26;46.60;41.48;60.85;;
186;Laerm;55473;48.800;9.002;2023-09-08T05:30:53;44.61;40.92;56.68;;
186;Laerm;55473;48.800;9.002;2023-09-08T05:33:19;46.58;42.08;57.04;;
186;Laerm;55473;48.800;9.002;2023-09-08T05:35:45;44.39;40.60;55.09;;
186;Laerm;55473;48.800;9.002;2023-09-08T05:38:12;46.62;40.93;61.86;;
186;Laerm;55473;48.800;9.002;2023-09-08T05:40:37;45.43;41.65;60.49;;
186;Laerm;55473;48.800;9.002;2023-09-08T05:43:04;46.14;41.77;56.95;;
186;Laerm;55473;48.800;9.002;2023-09-08T05:45:32;46.85;41.45;66.68;;
186;Laerm;55473;48.800;9.002;2023-09-08T05:47:58;47.28;41.08;59.15;;
186;Laerm;55473;48.800;9.002;2023-09-08T05:50:23;45.47;41.26;58.78;;
186;Laerm;55473;48.800;9.002;2023-09-08T05:52:51;43.96;40.97;58.41;;
186;Laerm;55473;48.800;9.002;2023-09-08T05:55:17;45.16;41.64;57.23;;
186;Laerm;55473;48.800;9.002;2023-09-08T05:57:43;45.72;41.61;58.28;;
186;Laerm;55473;48.800;9.002;2023-09-08T06:00:09;47.66;42.13;67.34;;
186;Laerm;55473;48.800;9.002;2023-09-08T06:02:35;47.14;41.72;68.02;;
186;Laerm;55473;48.800;9.002;2023-09-08T06:05:01;45.85;41.21;63.30;;
186;Laerm;55473;48.800;9.002;2023-09-08T06:07:27;45.30;41.83;54.48;;
186;Laerm;55473;48.800;9.002;2023-09-08T06:09:52;44.75;41.60;57.03;;
186;Laerm;55473;48.800;9.002;2023-09-08T06:12:18;44.30;40.73;54.48;;
186;Laerm;55473;48.800;9.002;2023-09-08T06:14:44;48.60;42.06;61.53;;
186;Laerm;55473;48.800;9.002;2023-09-08T06:17:10;47.32;41.57;57.14;;
186;Laerm;55473;48.800;9.002;2023-09-08T06:19:36;46.22;41.16;67.39;;
186;Laerm;55473;48.800;9.002;2023-09-08T06:22:02;44.64;40.30;59.66;;
186;Laerm;55473;48.800;9.002;2023-09-08T06:24:28;45.92;41.77;63.32;;
186;Laerm;55473;48.800;9.002;2023-09-08T06:26:53;45.30;40.79;56.17;;
186;Laerm;55473;48.800;9.002;2023-09-08T06:29:19;47.11;41.04;57.35;;
186;Laerm;55473;48.800;9.002;2023-09-08T06:31:45;53.50;42.55;74.96;;
186;Laerm;55473;48.800;9.002;2023-09-08T06:34:11;47.17;40.81;56.99;;
186;Laerm;55473;48.800;9.002;2023-09-08T06:36:36;43.60;40.64;49.67;;
186;Laerm;55473;48.800;9.002;2023-09-08T06:39:02;43.73;39.83;56.56;;
186;Laerm;55473;48.800;9.002;2023-09-08T06:41:29;44.84;39.72;67.29;;
186;Laerm;55473;48.800;9.002;2023-09-08T06:43:55;45.72;39.68;58.89;;
186;Laerm;55473;48.800;9.002;2023-09-08T06:46:21;48.26;39.61;67.47;;
186;Laerm;55473;48.800;9.002;2023-09-08T06:48:46;47.69;40.18;60.52;;
186;Laerm;55473;48.800;9.002;2023-09-08T06:51:12;44.27;39.19;67.74;;
186;Laerm;55473;48.800;9.002;2023-09-08T06:53:38;42.59;38.19;52.62;;
186;Laerm;55473;48.800;9.002;2023-09-08T06:56:04;43.16;38.82;51.13;;
186;Laerm;55473;48.800;9.002;2023-09-08T06:58:29;45.74;39.85;54.64;;
186;Laerm;55473;48.800;9.002;2023-09-08T07:00:55;42.68;38.03;53.79;;
186;Laerm;55473;48.800;9.002;2023-09-08T07:03:21;45.57;38.01;56.15;;
186;Laerm;55473;48.800;9.002;2023-09-08T07:05:52;41.45;37.68;50.44;;
186;Laerm;55473;48.800;9.002;2023-09-08T07:08:18;41.28;38.25;55.62;;
186;Laerm;55473;48.800;9.002;2023-09-08T07:10:44;44.40;38.21;58.74;;
186;Laerm;55473;48.800;9.002;2023-09-08T07:13:10;57.12;39.64;70.20;;
186;Laerm;55473;48.800;9.002;2023-09-08T07:15:36;44.62;37.96;58.47;;
186;Laerm;55473;48.800;9.002;2023-09-08T07:18:02;47.00;37.59;58.70;;
186;Laerm;55473;48.800;9.002;2023-09-08T07:20:28;42.84;37.25;59.13;;
186;Laerm;55473;48.800;9.002;2023-09-08T07:22:54;53.09;37.62;61.59;;
186;Laerm;55473;48.800;9.002;2023-09-08T07:25:20;54.26;37.55;71.27;;
186;Laerm;55473;48.800;9.002;2023-09-08T07:27:45;51.38;36.19;75.32;;
186;Laerm;55473;48.800;9.002;2023-09-08T07:30:12;50.80;37.28;73.77;;
186;Laerm;55473;48.800;9.002;2023-09-08T07:32:37;54.48;37.12;75.94;;
186;Laerm;55473;48.800;9.002;2023-09-08T07:35:03;51.82;36.25;71.94;;
186;Laerm;55473;48.800;9.002;2023-09-08T07:37:29;43.04;36.38;68.59;;
186;Laerm;55473;48.800;9.002;2023-09-08T07:39:55;43.45;36.68;64.30;;
186;Laerm;55473;48.800;9.002;2023-09-08T07:42:21;42.76;35.80;56.54;;
186;Laerm;55473;48.800;9.002;2023-09-08T07:44:47;46.83;36.32;59.04;;
186;Laerm;55473;48.800;9.002;2023-09-08T07:47:13;46.37;36.12;58.52;;
186;Laerm;55473;48.800;9.002;2023-09-08T07:49:39;44.77;37.38;57.21;;
186;Laerm;55473;48.800;9.002;2023-09-08T07:52:05;45.99;41.18;58.01;;
186;Laerm;55473;48.800;9.002;2023-09-08T07:54:32;49.80;41.70;65.73;;
186;Laerm;55473;48.800;9.002;2023-09-08T07:56:58;46.26;41.93;53.99;;
186;Laerm;55473;48.800;9.002;2023-09-08T07:59:24;48.31;40.98;56.90;;
186;Laerm;55473;48.800;9.002;2023-09-08T08:01:50;50.24;44.08;58.16;;
186;Laerm;55473;48.800;9.002;2023-09-08T08:04:16;46.28;41.21;55.84;;
186;Laerm;55473;48.800;9.002;2023-09-08T08:06:42;49.45;41.53;61.39;;
186;Laerm;55473;48.800;9.002;2023-09-08T08:09:07;45.81;40.79;57.09;;
186;Laerm;55473;48.800;9.002;2023-09-08T08:11:33;46.21;36.47;65.69;;
186;Laerm;55473;48.800;9.002;2023-09-08T08:13:59;45.58;36.93;55.24;;
186;Laerm;55473;48.800;9.002;2023-09-08T08:16:25;41.21;35.54;50.72;;
186;Laerm;55473;48.800;9.002;2023-09-08T08:18:51;46.28;37.68;59.06;;
186;Laerm;55473;48.800;9.002;2023-09-08T08:21:17;42.83;35.88;62.59;;
186;Laerm;55473;48.800;9.002;2023-09-08T08:23:43;42.81;37.05;64.70;;
186;Laerm;55473;48.800;9.002;2023-09-08T08:26:09;42.99;35.89;57.01;;
186;Laerm;55473;48.800;9.002;2023-09-08T08:28:35;45.51;35.71;53.03;;
186;Laerm;55473;48.800;9.002;2023-09-08T08:31:01;43.79;37.34;57.24;;
186;Laerm;55473;48.800;9.002;2023-09-08T08:33:26;44.99;37.75;53.44;;
186;Laerm;55473;48.800;9.002;2023-09-08T08:35:53;42.25;37.96;57.41;;
186;Laerm;55473;48.800;9.002;2023-09-08T08:38:20;43.29;35.33;64.45;;
186;Laerm;55473;48.800;9.002;2023-09-08T08:40:46;41.01;35.46;51.18;;
186;Laerm;55473;48.800;9.002;2023-09-08T08:43:12;49.81;37.02;62.23;;
186;Laerm;55473;48.800;9.002;2023-09-08T08:45:38;46.80;36.89;62.94;;
186;Laerm;55473;48.800;9.002;2023-09-08T08:48:06;46.85;36.29;56.73;;
186;Laerm;55473;48.800;9.002;2023-09-08T08:50:35;42.65;36.92;54.01;;
186;Laerm;55473;48.800;9.002;2023-09-08T08:53:02;47.69;35.92;59.65;;
186;Laerm;55473;48.800;9.002;2023-09-08T08:55:30;48.88;36.30;60.22;;
186;Laerm;55473;48.800;9.002;2023-09-08T08:58:04;44.54;37.32;64.81;;
186;Laerm;55473;48.800;9.002;2023-09-08T09:00:30;43.63;36.30;52.65;;
186;Laerm;55473;48.800;9.002;2023-09-08T09:02:58;46.49;38.02;56.22;;
186;Laerm;55473;48.800;9.002;2023-09-08T09:05:25;41.49;37.57;52.04;;
186;Laerm;55473;48.800;9.002;2023-09-08T09:07:53;40.26;36.17;50.00;;
186;Laerm;55473;48.800;9.002;2023-09-08T09:10:19;40.45;36.48;59.66;;
186;Laerm;55473;48.800;9.002;2023-09-08T09:12:45;45.42;37.31;59.77;;
186;Laerm;55473;48.800;9.002;2023-09-08T09:15:12;47.35;37.14;59.59;;
186;Laerm;55473;48.800;9.002;2023-09-08T09:17:38;45.88;36.38;55.82;;
186;Laerm;55473;48.800;9.002;2023-09-08T09:20:21;42.40;35.87;54.87;;
186;Laerm;55473;48.800;9.002;2023-09-08T09:22:47;42.41;35.29;49.39;;
186;Laerm;55473;48.800;9.002;2023-09-08T09:25:34;40.49;36.57;46.12;;
186;Laerm;55473;48.800;9.002;2023-09-08T09:28:02;39.39;36.37;56.41;;
186;Laerm;55473;48.800;9.002;2023-09-08T09:30:47;44.42;36.08;59.76;;
186;Laerm;55473;48.800;9.002;2023-09-08T09:33:14;45.51;35.77;55.09;;
186;Laerm;55473;48.800;9.002;2023-09-08T09:35:51;40.14;35.56;52.59;;
186;Laerm;55473;48.800;9.002;2023-09-08T09:38:19;40.55;35.76;57.26;;
186;Laerm;55473;48.800;9.002;2023-09-08T09:40:47;43.47;36.07;62.63;;
186;Laerm;55473;48.800;9.002;2023-09-08T09:43:16;45.27;37.32;53.94;;
186;Laerm;55473;48.800;9.002;2023-09-08T09:45:43;41.12;36.71;52.66;;
186;Laerm;55473;48.800;9.002;2023-09-08T09:48:11;48.81;36.86;59.26;;
186;Laerm;55473;48.800;9.002;2023-09-08T09:50:42;41.40;37.12;52.40;;
186;Laerm;55473;48.800;9.002;2023-09-08T09:53:15;41.39;37.19;54.64;;
186;Laerm;55473;48.800;9.002;2023-09-08T09:55:44;41.41;37.34;48.56;;
186;Laerm;55473;48.800;9.002;2023-09-08T09:58:11;42.38;35.50;56.55;;
186;Laerm;55473;48.800;9.002;2023-09-08T10:00:38;45.59;35.29;54.95;;
186;Laerm;55473;48.800;9.002;2023-09-08T10:03:07;47.38;37.72;58.66;;
186;Laerm;55473;48.800;9.002;2023-09-08T10:05:34;43.12;37.04;55.08;;
186;Laerm;55473;48.800;9.002;2023-09-08T10:08:00;42.18;35.56;62.62;;
186;Laerm;55473;48.800;9.002;2023-09-08T10:10:27;40.35;35.90;53.25;;
186;Laerm;55473;48.800;9.002;2023-09-08T10:13:05;47.43;36.73;60.16;;
186;Laerm;55473;48.800;9.002;2023-09-08T10:15:31;45.96;36.77;56.71;;
186;Laerm;55473;48.800;9.002;2023-09-08T10:17:59;48.08;37.20;58.61;;
186;Laerm;55473;48.800;9.002;2023-09-08T10:20:28;41.11;36.09;49.20;;
186;Laerm;55473;48.800;9.002;2023-09-08T10:25:35;38.78;35.45;46.20;;
186;Laerm;55473;48.800;9.002;2023-09-08T10:28:04;44.78;36.81;55.00;;
186;Laerm;55473;48.800;9.002;2023-09-08T10:30:31;45.96;35.49;63.95;;
186;Laerm;55473;48.800;9.002;2023-09-08T10:32:58;41.53;36.84;58.03;;
186;Laerm;55473;48.800;9.002;2023-09-08T10:35:25;45.16;36.59;57.46;;
186;Laerm;55473;48.800;9.002;2023-09-08T10:37:51;39.66;36.46;48.94;;
186;Laerm;55473;48.800;9.002;2023-09-08T10:40:37;40.06;35.92;56.85;;
186;Laerm;55473;48.800;9.002;2023-09-08T10:43:09;46.41;36.17;53.17;;
186;Laerm;55473;48.800;9.002;2023-09-08T10:45:36;44.92;36.59;55.43;;
186;Laerm;55473;48.800;9.002;2023-09-08T10:48:02;50.71;38.80;64.19;;
186;Laerm;55473;48.800;9.002;2023-09-08T10:50:35;44.90;37.40;61.66;;
186;Laerm;55473;48.800;9.002;2023-09-08T10:53:16;48.09;37.46;63.99;;
186;Laerm;55473;48.800;9.002;2023-09-08T10:55:49;41.33;36.32;55.21;;
186;Laerm;55473;48.800;9.002;2023-09-08T11:01:00;43.13;36.12;54.70;;
186;Laerm;55473;48.800;9.002;2023-09-08T11:06:08;46.48;36.43;70.96;;
186;Laerm;55473;48.800;9.002;2023-09-08T11:08:42;42.51;36.65;61.56;;
186;Laerm;55473;48.800;9.002;2023-09-08T11:11:11;40.40;36.27;52.14;;
186;Laerm;55473;48.800;9.002;2023-09-08T11:13:38;48.16;36.27;67.35;;
186;Laerm;55473;48.800;9.002;2023-09-08T11:16:06;47.38;36.28;61.91;;
186;Laerm;55473;48.800;9.002;2023-09-08T11:18:34;47.08;37.08;73.27;;
186;Laerm;55473;48.800;9.002;2023-09-08T11:21:03;41.73;36.13;56.07;;
186;Laerm;55473;48.800;9.002;2023-09-08T11:23:29;40.95;35.45;54.72;;
186;Laerm;55473;48.800;9.002;2023-09-08T11:25:57;54.52;36.08;77.98;;
186;Laerm;55473;48.800;9.002;2023-09-08T11:28:24;45.64;35.67;55.52;;
186;Laerm;55473;48.800;9.002;2023-09-08T11:30:50;41.95;35.75;55.73;;
186;Laerm;55473;48.800;9.002;2023-09-08T11:33:18;45.57;36.27;54.14;;
186;Laerm;55473;48.800;9.002;2023-09-08T11:35:48;40.60;36.31;51.85;;
186;Laerm;55473;48.800;9.002;2023-09-08T11:38:14;39.37;35.40;51.90;;
186;Laerm;55473;48.800;9.002;2023-09-08T11:40:41;39.36;36.02;49.16;;
186;Laerm;55473;48.800;9.002;2023-09-08T11:43:07;46.21;36.69;57.47;;
186;Laerm;55473;48.800;9.002;2023-09-08T11:45:37;45.56;36.88;54.69;;
186;Laerm;55473;48.800;9.002;2023-09-08T11:48:04;47.72;36.94;58.21;;
186;Laerm;55473;48.800;9.002;2023-09-08T11:50:31;43.50;37.03;61.10;;
186;Laerm;55473;48.800;9.002;2023-09-08T11:52:57;45.41;36.60;64.40;;
186;Laerm;55473;48.800;9.002;2023-09-08T11:55:28;40.05;36.16;50.83;;
186;Laerm;55473;48.800;9.002;2023-09-08T11:57:56;45.17;36.28;54.66;;
186;Laerm;55473;48.800;9.002;2023-09-08T12:00:27;43.25;35.34;54.34;;
186;Laerm;55473;48.800;9.002;2023-09-08T12:02:54;46.42;36.72;56.91;;
186;Laerm;55473;48.800;9.002;2023-09-08T12:05:27;45.30;36.87;56.10;;
186;Laerm;55473;48.800;9.002;2023-09-08T12:07:56;49.27;36.82;73.06;;
186;Laerm;55473;48.800;9.002;2023-09-08T12:10:24;41.79;36.86;49.61;;
186;Laerm;55473;48.800;9.002;2023-09-08T12:12:52;45.56;35.90;62.95;;
186;Laerm;55473;48.800;9.002;2023-09-08T12:15:42;46.29;36.31;68.31;;
186;Laerm;55473;48.800;9.002;2023-09-08T12:18:12;47.74;37.08;58.00;;
186;Laerm;55473;48.800;9.002;2023-09-08T12:20:39;40.26;36.52;50.99;;
186;Laerm;55473;48.800;9.002;2023-09-08T12:23:16;41.68;36.90;53.03;;
186;Laerm;55473;48.800;9.002;2023-09-08T12:28:12;50.63;36.50;64.73;;
186;Laerm;55473;48.800;9.002;2023-09-08T12:30:38;48.27;36.46;62.41;;
186;Laerm;55473;48.800;9.002;2023-09-08T12:33:04;46.67;38.71;55.71;;
186;Laerm;55473;48.800;9.002;2023-09-08T12:35:31;43.67;36.61;55.40;;
186;Laerm;55473;48.800;9.002;2023-09-08T12:38:03;45.58;37.67;52.64;;
186;Laerm;55473;48.800;9.002;2023-09-08T12:40:33;42.38;36.68;48.86;;
186;Laerm;55473;48.800;9.002;2023-09-08T12:42:59;42.17;37.16;52.78;;
186;Laerm;55473;48.800;9.002;2023-09-08T12:45:27;49.97;41.30;60.07;;
186;Laerm;55473;48.800;9.002;2023-09-08T12:47:53;45.98;35.89;56.42;;
186;Laerm;55473;48.800;9.002;2023-09-08T12:50:24;43.42;36.83;49.46;;
186;Laerm;55473;48.800;9.002;2023-09-08T12:52:50;41.80;36.54;51.99;;
186;Laerm;55473;48.800;9.002;2023-09-08T12:55:16;43.44;37.12;51.12;;
186;Laerm;55473;48.800;9.002;2023-09-08T12:57:41;45.62;37.11;54.99;;
186;Laerm;55473;48.800;9.002;2023-09-08T13:00:08;44.92;36.82;55.15;;
186;Laerm;55473;48.800;9.002;2023-09-08T13:02:34;52.80;36.62;61.24;;
186;Laerm;55473;48.800;9.002;2023-09-08T13:05:01;49.54;38.97;65.35;;
186;Laerm;55473;48.800;9.002;2023-09-08T13:07:27;41.30;36.16;53.22;;
186;Laerm;55473;48.800;9.002;2023-09-08T13:09:53;40.09;35.93;48.30;;
186;Laerm;55473;48.800;9.002;2023-09-08T13:12:19;40.36;36.99;47.48;;
186;Laerm;55473;48.800;9.002;2023-09-08T13:14:45;45.92;36.97;53.80;;
186;Laerm;55473;48.800;9.002;2023-09-08T13:17:12;48.95;37.79;63.02;;
186;Laerm;55473;48.800;9.002;2023-09-08T13:19:38;43.95;36.76;60.56;;
186;Laerm;55473;48.800;9.002;2023-09-08T13:22:05;44.51;37.36;60.31;;
186;Laerm;55473;48.800;9.002;2023-09-08T13:24:31;40.70;36.56;58.10;;
186;Laerm;55473;48.800;9.002;2023-09-08T13:26:57;40.73;36.27;55.35;;
186;Laerm;55473;48.800;9.002;2023-09-08T13:29:23;47.00;35.72;59.97;;
186;Laerm;55473;48.800;9.002;2023-09-08T13:31:48;44.34;36.76;55.74;;
186;Laerm;55473;48.800;9.002;2023-09-08T13:34:14;45.45;38.57;57.55;;
186;Laerm;55473;48.800;9.002;2023-09-08T13:36:40;43.62;35.96;62.51;;
186;Laerm;55473;48.800;9.002;2023-09-08T13:39:06;50.44;36.60;64.10;;
186;Laerm;55473;48.800;9.002;2023-09-08T13:41:54;41.26;37.28;51.80;;
186;Laerm;55473;48.800;9.002;2023-09-08T13:44:22;48.55;37.65;56.51;;
186;Laerm;55473;48.800;9.002;2023-09-08T13:46:53;40.21;36.70;51.24;;
186;Laerm;55473;48.800;9.002;2023-09-08T13:49:20;48.33;37.56;58.75;;
186;Laerm;55473;48.800;9.002;2023-09-08T13:51:46;40.56;36.50;54.25;;
186;Laerm;55473;48.800;9.002;2023-09-08T13:54:13;40.15;36.28;54.62;;
186;Laerm;55473;48.800;9.002;2023-09-08T13:56:41;42.46;36.01;63.44;;
186;Laerm;55473;48.800;9.002;2023-09-08T13:59:08;47.20;37.49;57.90;;
186;Laerm;55473;48.800;9.002;2023-09-08T14:01:36;44.24;37.24;55.28;;
186;Laerm;55473;48.800;9.002;2023-09-08T14:04:05;44.06;37.48;54.13;;
186;Laerm;55473;48.800;9.002;2023-09-08T14:06:34;42.13;35.86;52.13;;
186;Laerm;55473;48.800;9.002;2023-09-08T14:09:00;41.09;36.05;51.00;;
186;Laerm;55473;48.800;9.002;2023-09-08T14:11:26;40.96;37.05;51.70;;
186;Laerm;55473;48.800;9.002;2023-09-08T14:13:52;49.61;39.61;58.16;;
186;Laerm;55473;48.800;9.002;2023-09-08T14:16:18;44.59;37.55;61.57;;
186;Laerm;55473;48.800;9.002;2023-09-08T14:18:45;47.55;38.00;56.48;;
186;Laerm;55473;48.800;9.002;2023-09-08T14:21:11;41.24;36.90;53.27;;
186;Laerm;55473;48.800;9.002;2023-09-08T14:23:37;51.52;36.34;60.69;;